createdAt,value
2022-09-12T00:01:09.237Z,7.90
2022-09-12T00:03:37.859Z,8.07
2022-09-12T00:06:10.675Z,7.97
2022-09-12T00:08:38.503Z,8.75
2022-09-12T00:11:08.640Z,8.50
2022-09-12T00:13:41.310Z,8.40
2022-09-12T00:16:16.745Z,8.50
2022-09-12T00:18:46.873Z,8.02
2022-09-12T00:21:15.849Z,8.30
2022-09-12T00:23:43.620Z,8.38
2022-09-12T00:26:11.810Z,9.80
2022-09-12T00:28:41.434Z,7.13
2022-09-12T00:31:13.732Z,7.82
2022-09-12T00:33:42.165Z,8.45
2022-09-12T00:36:11.880Z,8.23
2022-09-12T00:38:42.194Z,7.25
2022-09-12T00:41:16.670Z,7.32
2022-09-12T00:43:46.165Z,7.47
2022-09-12T00:46:25.925Z,7.60
2022-09-12T00:48:58.114Z,7.30
2022-09-12T00:51:26.687Z,8.00
2022-09-12T00:53:57.326Z,7.57
2022-09-12T00:56:25.734Z,8.10
2022-09-12T00:58:58.792Z,6.78
2022-09-12T01:01:32.205Z,8.18
2022-09-12T01:04:00.732Z,7.25
2022-09-12T01:06:31.102Z,8.10
2022-09-12T01:09:03.459Z,7.53
2022-09-12T01:11:32.359Z,8.35
2022-09-12T01:14:00.914Z,8.40
2022-09-12T01:16:30.183Z,7.63
2022-09-12T01:19:09.062Z,7.60
2022-09-12T01:21:47.295Z,8.10
2022-09-12T01:24:49.448Z,7.78
2022-09-12T01:27:33.267Z,8.02
2022-09-12T01:30:24.258Z,8.15
2022-09-12T01:33:10.011Z,8.90
2022-09-12T01:35:46.467Z,9.00
2022-09-12T01:38:25.577Z,9.38
2022-09-12T01:41:03.192Z,8.70
2022-09-12T01:43:35.307Z,7.43
2022-09-12T01:46:11.608Z,8.27
2022-09-12T01:48:46.671Z,8.50
2022-09-12T01:51:21.569Z,8.55
2022-09-12T01:53:55.613Z,8.55
2022-09-12T01:56:27.134Z,7.78
2022-09-12T01:59:01.450Z,8.98
2022-09-12T02:01:32.142Z,9.05
2022-09-12T02:04:08.746Z,9.07
2022-09-12T02:06:41.264Z,9.77
2022-09-12T02:09:13.741Z,9.00
2022-09-12T02:11:45.314Z,9.93
2022-09-12T02:14:16.558Z,9.27
2022-09-12T02:16:47.501Z,9.45
2022-09-12T02:19:23.235Z,9.60
2022-09-12T02:21:54.445Z,8.88
2022-09-12T02:24:25.650Z,9.07
2022-09-12T02:26:58.690Z,8.57
2022-09-12T02:29:26.713Z,8.13
2022-09-12T02:31:59.464Z,8.43
2022-09-12T02:34:45.897Z,9.45
2022-09-12T02:37:23.579Z,9.10
2022-09-12T02:39:51.943Z,9.13
2022-09-12T02:42:20.182Z,9.50
2022-09-12T02:44:48.158Z,8.52
2022-09-12T02:47:21.573Z,10.82
2022-09-12T02:49:51.419Z,9.27
2022-09-12T02:52:19.401Z,7.88
2022-09-12T02:54:47.594Z,9.15
2022-09-12T02:57:22.880Z,9.65
2022-09-12T02:59:53.594Z,8.50
2022-09-12T03:02:34.463Z,9.93
2022-09-12T03:05:19.509Z,9.65
2022-09-12T03:08:15.038Z,9.05
2022-09-12T03:10:58.940Z,9.45
2022-09-12T03:13:34.412Z,9.40
2022-09-12T03:16:14.966Z,8.80
2022-09-12T03:18:52.870Z,9.32
2022-09-12T03:21:26.994Z,9.30
2022-09-12T03:24:06.087Z,9.52
2022-09-12T03:26:39.329Z,9.77
2022-09-12T03:29:09.389Z,9.00
2022-09-12T03:31:37.198Z,8.68
2022-09-12T03:34:05.720Z,10.32
2022-09-12T03:36:35.742Z,9.60
2022-09-12T03:39:03.506Z,10.10
2022-09-12T03:41:31.313Z,10.30
2022-09-12T03:43:59.656Z,9.45
2022-09-12T03:46:27.429Z,10.63
2022-09-12T03:48:55.498Z,9.18
2022-09-12T03:51:23.668Z,9.98
2022-09-12T03:53:53.320Z,10.65
2022-09-12T03:56:21.793Z,10.57
2022-09-12T03:58:50.209Z,10.27
2022-09-12T04:01:20.081Z,10.15
2022-09-12T04:03:49.807Z,10.63
2022-09-12T04:06:20.442Z,10.32
2022-09-12T04:08:51.599Z,11.10
2022-09-12T04:11:22.980Z,9.93
2022-09-12T04:13:51.418Z,10.50
2022-09-12T04:16:20.340Z,10.32
2022-09-12T04:18:48.432Z,11.05
2022-09-12T04:21:18.972Z,10.18
2022-09-12T04:23:47.183Z,9.63
2022-09-12T04:26:17.402Z,10.50
2022-09-12T04:28:47.208Z,10.05
2022-09-12T04:31:17.990Z,10.70
2022-09-12T04:33:46.250Z,11.10
2022-09-12T04:36:16.779Z,9.57
2022-09-12T04:38:46.221Z,10.43
2022-09-12T04:41:15.505Z,9.75
2022-09-12T04:43:44.085Z,9.95
2022-09-12T04:46:15.355Z,10.43
2022-09-12T04:48:44.389Z,10.90
2022-09-12T04:51:15.217Z,10.95
2022-09-12T04:53:43.982Z,10.25
2022-09-12T04:56:12.787Z,10.80
2022-09-12T04:58:40.572Z,10.73
2022-09-12T05:01:09.386Z,10.52
2022-09-12T05:03:39.870Z,10.43
2022-09-12T05:06:09.607Z,9.98
2022-09-12T05:08:37.447Z,9.30
2022-09-12T05:11:06.920Z,11.10
2022-09-12T05:13:35.351Z,11.05
2022-09-12T05:16:05.210Z,10.63
2022-09-12T05:18:33.783Z,11.90
2022-09-12T05:21:05.312Z,10.80
2022-09-12T05:23:33.759Z,10.98
2022-09-12T05:26:03.210Z,11.52
2022-09-12T05:28:32.922Z,11.35
2022-09-12T05:31:06.142Z,10.75
2022-09-12T05:33:35.534Z,10.85
2022-09-12T05:36:06.295Z,10.73
2022-09-12T05:38:36.069Z,12.20
2022-09-12T05:41:06.319Z,9.90
2022-09-12T05:43:34.397Z,10.48
2022-09-12T05:46:03.086Z,10.68
2022-09-12T05:48:31.205Z,11.35
2022-09-12T05:51:06.772Z,10.75
2022-09-12T05:53:34.520Z,9.90
2022-09-12T05:56:10.217Z,10.85
2022-09-12T05:58:39.971Z,10.95
2022-09-12T06:01:10.528Z,12.00
2022-09-12T06:03:41.407Z,11.95
2022-09-12T06:06:13.589Z,11.63
2022-09-12T06:08:42.768Z,10.90
2022-09-12T06:11:12.666Z,11.52
2022-09-12T06:13:42.143Z,10.60
2022-09-12T06:16:11.646Z,11.63
2022-09-12T06:18:41.401Z,10.88
2022-09-12T06:21:12.745Z,11.20
2022-09-12T06:23:41.623Z,9.95
2022-09-12T06:26:11.706Z,11.70
2022-09-12T06:28:41.114Z,11.05
2022-09-12T06:31:10.927Z,11.32
2022-09-12T06:33:41.331Z,11.98
2022-09-12T06:36:13.866Z,12.55
2022-09-12T06:38:42.118Z,11.82
2022-09-12T06:41:12.305Z,10.80
2022-09-12T06:43:40.709Z,10.98
2022-09-12T06:46:08.942Z,12.15
2022-09-12T06:48:41.690Z,12.68
2022-09-12T06:51:14.691Z,12.80
2022-09-12T06:53:45.320Z,11.20
2022-09-12T06:56:15.430Z,11.88
2022-09-12T06:58:44.477Z,11.10
2022-09-12T07:01:13.870Z,12.73
2022-09-12T07:03:42.150Z,11.52
2022-09-12T07:06:13.501Z,12.85
2022-09-12T07:08:41.559Z,12.45
2022-09-12T07:11:10.978Z,12.52
2022-09-12T07:13:38.922Z,13.57
2022-09-12T07:16:07.729Z,13.07
2022-09-12T07:18:36.079Z,12.18
2022-09-12T07:21:05.392Z,12.68
2022-09-12T07:23:34.692Z,12.07
2022-09-12T07:26:03.209Z,12.45
2022-09-12T07:28:32.834Z,13.32
2022-09-12T07:31:07.126Z,11.95
2022-09-12T07:33:35.595Z,14.90
2022-09-12T07:36:04.784Z,12.02
2022-09-12T07:38:34.057Z,13.60
2022-09-12T07:41:02.269Z,12.43
2022-09-12T07:43:30.009Z,13.00
2022-09-12T07:45:58.316Z,12.57
2022-09-12T07:48:28.380Z,13.80
2022-09-12T07:50:59.950Z,12.45
2022-09-12T07:53:28.412Z,12.65
2022-09-12T07:55:57.850Z,11.75
2022-09-12T07:58:25.994Z,12.25
2022-09-12T08:00:53.738Z,12.30
2022-09-12T08:03:21.786Z,12.50
2022-09-12T08:05:50.170Z,13.30
2022-09-12T08:08:18.510Z,13.68
2022-09-12T08:10:46.293Z,12.02
2022-09-12T08:13:15.882Z,12.45
2022-09-12T08:15:43.662Z,11.80
2022-09-12T08:18:11.571Z,12.98
2022-09-12T08:20:39.438Z,12.85
2022-09-12T08:23:07.316Z,12.40
2022-09-12T08:25:35.240Z,13.65
2022-09-12T08:28:03.452Z,11.90
2022-09-12T08:30:32.582Z,12.57
2022-09-12T08:33:00.472Z,12.13
2022-09-12T08:35:28.659Z,12.73
2022-09-12T08:37:56.490Z,12.75
2022-09-12T08:40:24.332Z,12.15
2022-09-12T08:42:58.534Z,12.05
2022-09-12T08:45:35.918Z,11.80
2022-09-12T08:48:05.397Z,10.68
2022-09-12T08:50:33.479Z,11.48
2022-09-12T08:53:05.433Z,11.23
2022-09-12T08:55:35.896Z,10.45
2022-09-12T08:58:12.866Z,9.88
2022-09-12T09:00:50.381Z,10.05
2022-09-12T09:03:36.139Z,9.52
2022-09-12T09:06:09.954Z,9.90
2022-09-12T09:08:50.604Z,10.30
2022-09-12T09:11:32.553Z,10.48
2022-09-12T09:14:33.434Z,9.77
2022-09-12T09:17:03.668Z,8.45
2022-09-12T09:19:37.865Z,8.63
2022-09-12T09:22:12.823Z,9.13
2022-09-12T09:24:44.914Z,6.22
2022-09-12T09:27:39.462Z,6.47
2022-09-12T09:30:16.531Z,6.32
2022-09-12T09:32:50.331Z,7.25
2022-09-12T09:35:21.736Z,6.47
2022-09-12T09:38:12.391Z,6.07
2022-09-12T09:40:51.390Z,4.60
2022-09-12T09:43:23.910Z,5.47
2022-09-12T09:45:53.850Z,5.97
2022-09-12T09:48:26.712Z,4.65
2022-09-12T09:50:54.602Z,5.15
2022-09-12T09:53:34.866Z,4.68
2022-09-12T09:56:08.380Z,5.15
2022-09-12T09:58:37.384Z,5.75
2022-09-12T10:01:07.188Z,5.97
2022-09-12T10:03:39.339Z,5.78
2022-09-12T10:06:25.623Z,7.03
2022-09-12T10:09:06.590Z,10.27
2022-09-12T10:11:34.820Z,6.43
2022-09-12T10:14:04.465Z,6.30
2022-09-12T10:16:35.140Z,6.05
2022-09-12T10:19:05.370Z,5.35
2022-09-12T10:21:36.317Z,5.10
2022-09-12T10:24:15.695Z,4.45
2022-09-12T10:26:46.134Z,4.75
2022-09-12T10:29:19.159Z,4.75
2022-09-12T10:31:52.204Z,5.25
2022-09-12T10:34:32.405Z,5.35
2022-09-12T10:37:04.100Z,5.20
2022-09-12T10:39:32.707Z,4.15
2022-09-12T10:42:00.546Z,4.78
2022-09-12T10:44:30.769Z,3.90
2022-09-12T10:47:00.051Z,4.47
2022-09-12T10:49:31.273Z,4.75
2022-09-12T10:52:18.214Z,4.25
2022-09-12T10:54:46.499Z,3.13
2022-09-12T10:57:46.229Z,3.25
2022-09-12T11:00:17.938Z,3.92
2022-09-12T11:02:53.244Z,3.33
2022-09-12T11:05:41.770Z,2.80
2022-09-12T11:08:39.437Z,3.00
2022-09-12T11:11:19.190Z,3.03
2022-09-12T11:14:03.394Z,2.97
2022-09-12T11:16:42.689Z,3.33
2022-09-12T11:19:38.386Z,3.08
2022-09-12T11:22:21.233Z,3.42
2022-09-12T11:25:14.445Z,3.25
2022-09-12T11:28:03.902Z,3.75
2022-09-12T11:30:38.091Z,3.25
2022-09-12T11:33:21.828Z,3.40
2022-09-12T11:35:55.526Z,3.50
2022-09-12T11:38:43.070Z,3.45
2022-09-12T11:41:18.414Z,3.75
2022-09-12T11:43:51.672Z,3.00
2022-09-12T11:46:23.801Z,3.25
2022-09-12T11:48:58.974Z,2.90
2022-09-12T11:51:29.921Z,2.97
2022-09-12T11:54:05.787Z,3.22
2022-09-12T11:56:38.626Z,2.70
2022-09-12T11:59:27.687Z,3.88
2022-09-12T12:02:00.064Z,2.63
2022-09-12T12:04:36.286Z,3.00
2022-09-12T12:07:07.345Z,3.30
2022-09-12T12:09:37.117Z,2.10
2022-09-12T12:12:09.951Z,2.70
2022-09-12T12:14:43.119Z,2.88
2022-09-12T12:17:16.793Z,3.00
2022-09-12T12:19:46.434Z,2.55
2022-09-12T12:22:19.295Z,3.03
2022-09-12T12:25:06.749Z,2.85
2022-09-12T12:27:50.634Z,3.45
2022-09-12T12:31:02.264Z,2.95
2022-09-12T12:34:16.290Z,2.50
2022-09-12T12:36:44.548Z,2.53
2022-09-12T12:40:05.008Z,2.25
2022-09-12T12:43:08.877Z,2.22
2022-09-12T12:46:06.844Z,2.55
2022-09-12T12:48:52.047Z,3.00
2022-09-12T12:51:56.222Z,2.53
2022-09-12T12:54:55.862Z,2.90
2022-09-12T12:57:47.041Z,2.35
2022-09-12T13:00:33.649Z,2.17
2022-09-12T13:03:11.575Z,2.25
2022-09-12T13:05:42.651Z,2.13
2022-09-12T13:08:28.759Z,1.80
2022-09-12T13:11:00.562Z,2.05
2022-09-12T13:13:33.797Z,1.92
2022-09-12T13:16:01.759Z,1.40
2022-09-12T13:18:41.953Z,1.73
2022-09-12T13:21:13.596Z,1.75
2022-09-12T13:23:41.852Z,1.85
2022-09-12T13:26:14.570Z,2.25
2022-09-12T13:28:42.438Z,2.13
2022-09-12T13:31:18.331Z,1.58
2022-09-12T13:33:50.383Z,1.30
2022-09-12T13:36:46.813Z,1.42
2022-09-12T13:39:20.206Z,1.73
2022-09-12T13:42:25.775Z,1.40
2022-09-12T13:44:58.746Z,1.30
2022-09-12T13:47:31.718Z,2.33
2022-09-12T13:50:02.284Z,1.85
2022-09-12T13:52:34.227Z,2.38
2022-09-12T13:55:06.417Z,2.20
2022-09-12T13:57:37.529Z,1.83
2022-09-12T14:00:22.257Z,1.80
2022-09-12T14:03:11.296Z,1.75
2022-09-12T14:05:42.116Z,1.73
2022-09-12T14:08:11.990Z,2.35
2022-09-12T14:10:42.682Z,2.22
2022-09-12T14:13:13.813Z,1.83
2022-09-12T14:15:46.258Z,1.77
2022-09-12T14:18:25.524Z,1.23
2022-09-12T14:20:57.205Z,1.27
2022-09-12T14:23:30.745Z,1.40
2022-09-12T14:26:01.318Z,1.30
2022-09-12T14:28:30.258Z,1.48
2022-09-12T14:31:01.538Z,1.25
2022-09-12T14:33:30.376Z,1.48
2022-09-12T14:36:12.835Z,1.30
2022-09-12T14:38:43.650Z,1.83
2022-09-12T14:41:14.196Z,1.65
2022-09-12T14:43:45.572Z,1.67
2022-09-12T14:46:20.424Z,1.52
2022-09-12T14:48:52.412Z,1.55
2022-09-12T14:51:26.962Z,1.58
2022-09-12T14:53:55.012Z,1.30
2022-09-12T14:56:23.594Z,1.65
2022-09-12T14:58:51.930Z,2.10
2022-09-12T15:01:26.351Z,1.50
2022-09-12T15:03:56.445Z,1.65
2022-09-12T15:06:29.885Z,1.50
2022-09-12T15:09:00.600Z,1.60
2022-09-12T15:11:28.509Z,1.88
2022-09-12T15:13:56.341Z,1.45
2022-09-12T15:16:24.151Z,1.17
2022-09-12T15:18:52.088Z,1.58
2022-09-12T15:21:21.441Z,1.52
2022-09-12T15:23:51.854Z,1.20
2022-09-12T15:26:21.720Z,1.23
2022-09-12T15:28:50.208Z,1.30
2022-09-12T15:31:24.777Z,1.27
2022-09-12T15:33:53.214Z,1.38
2022-09-12T15:36:22.907Z,1.80
2022-09-12T15:38:53.433Z,1.45
2022-09-12T15:41:23.443Z,1.58
2022-09-12T15:43:52.376Z,1.10
2022-09-12T15:46:21.490Z,1.70
2022-09-12T15:48:50.244Z,1.48
2022-09-12T15:51:19.606Z,1.60
2022-09-12T15:53:49.324Z,1.30
2022-09-12T15:56:20.997Z,1.35
2022-09-12T15:58:58.641Z,1.83
2022-09-12T16:01:28.919Z,1.20
2022-09-12T16:03:57.322Z,1.20
2022-09-12T16:06:25.354Z,1.17
2022-09-12T16:08:53.266Z,1.15
2022-09-12T16:11:24.270Z,1.23
2022-09-12T16:13:53.742Z,1.35
2022-09-12T16:16:21.934Z,1.58
2022-09-12T16:18:50.280Z,1.70
2022-09-12T16:21:18.046Z,1.50
2022-09-12T16:23:46.868Z,1.77
2022-09-12T16:26:15.194Z,1.70
2022-09-12T16:28:44.600Z,1.48
2022-09-12T16:31:14.915Z,1.40
2022-09-12T16:33:43.009Z,1.30
2022-09-12T16:36:12.281Z,1.10
2022-09-12T16:38:43.372Z,1.63
2022-09-12T16:41:11.235Z,1.50
2022-09-12T16:43:39.999Z,1.95
2022-09-12T16:46:11.899Z,1.95
2022-09-12T16:48:49.317Z,2.78
2022-09-12T16:51:20.864Z,3.30
2022-09-12T16:53:49.549Z,2.50
2022-09-12T16:56:17.719Z,2.05
2022-09-12T16:58:46.703Z,1.75
2022-09-12T17:01:17.545Z,1.50
2022-09-12T17:03:45.657Z,1.45
2022-09-12T17:06:16.550Z,1.52
2022-09-12T17:08:45.996Z,1.52
2022-09-12T17:11:17.359Z,1.48
2022-09-12T17:14:03.883Z,1.40
2022-09-12T17:16:35.488Z,1.95
2022-09-12T17:19:03.920Z,1.27
2022-09-12T17:21:31.805Z,1.40
2022-09-12T17:24:00.165Z,1.92
2022-09-12T17:26:28.129Z,1.48
2022-09-12T17:28:55.922Z,1.50
2022-09-12T17:31:23.875Z,1.55
2022-09-12T17:33:57.143Z,1.55
2022-09-12T17:36:25.523Z,1.40
2022-09-12T17:38:54.178Z,1.30
2022-09-12T17:41:24.009Z,1.45
2022-09-12T17:43:54.734Z,1.85
2022-09-12T17:46:23.638Z,1.85
2022-09-12T17:48:57.054Z,2.70
2022-09-12T17:51:26.499Z,2.33
2022-09-12T17:53:58.973Z,2.00
2022-09-12T17:56:27.930Z,1.77
2022-09-12T17:58:56.379Z,1.38
2022-09-12T18:01:43.320Z,1.92
2022-09-12T18:04:12.534Z,1.70
2022-09-12T18:06:47.903Z,1.67
2022-09-12T18:09:18.055Z,1.73
2022-09-12T18:11:46.462Z,1.80
2022-09-12T18:14:14.662Z,2.20
2022-09-12T18:16:43.115Z,2.50
2022-09-12T18:19:12.721Z,2.38
2022-09-12T18:21:40.959Z,2.20
2022-09-12T18:24:10.160Z,2.00
2022-09-12T18:26:38.448Z,2.40
2022-09-12T18:29:06.752Z,2.15
2022-09-12T18:31:34.621Z,2.22
2022-09-12T18:34:02.750Z,2.20
2022-09-12T18:36:32.303Z,1.92
2022-09-12T18:39:00.891Z,1.77
2022-09-12T18:41:29.306Z,2.20
2022-09-12T18:43:58.175Z,1.63
2022-09-12T18:46:26.895Z,2.10
2022-09-12T18:48:57.678Z,2.40
2022-09-12T18:51:31.319Z,2.22
2022-09-12T18:54:02.193Z,2.40
2022-09-12T18:56:32.893Z,2.85
2022-09-12T18:59:02.054Z,2.58
2022-09-12T19:01:32.203Z,3.08
2022-09-12T19:04:04.575Z,2.78
2022-09-12T19:06:34.659Z,2.45
2022-09-12T19:09:08.074Z,2.63
2022-09-12T19:11:38.178Z,3.63
2022-09-12T19:14:07.202Z,2.63
2022-09-12T19:16:35.558Z,2.40
2022-09-12T19:19:03.648Z,2.67
2022-09-12T19:21:32.983Z,2.60
2022-09-12T19:24:04.047Z,2.47
2022-09-12T19:26:32.454Z,3.22
2022-09-12T19:29:02.440Z,2.80
2022-09-12T19:31:31.299Z,3.35
2022-09-12T19:34:01.976Z,3.40
2022-09-12T19:36:47.068Z,3.42
2022-09-12T19:39:17.390Z,3.75
2022-09-12T19:41:45.937Z,3.58
2022-09-12T19:44:13.867Z,3.40
2022-09-12T19:46:42.200Z,3.13
2022-09-12T19:49:12.239Z,3.10
2022-09-12T19:51:40.191Z,2.47
2022-09-12T19:54:08.409Z,2.90
2022-09-12T19:56:37.661Z,3.80
2022-09-12T19:59:05.528Z,3.47
2022-09-12T20:01:34.622Z,4.57
2022-09-12T20:04:02.885Z,4.47
2022-09-12T20:06:30.693Z,4.15
2022-09-12T20:08:58.975Z,4.63
2022-09-12T20:11:26.900Z,4.50
2022-09-12T20:13:56.102Z,4.07
2022-09-12T20:16:26.295Z,4.10
2022-09-12T20:18:55.604Z,4.15
2022-09-12T20:21:31.270Z,4.20
2022-09-12T20:24:02.251Z,4.93
2022-09-12T20:26:30.377Z,4.80
2022-09-12T20:28:59.955Z,4.00
2022-09-12T20:31:27.831Z,3.47
2022-09-12T20:33:56.020Z,4.70
2022-09-12T20:36:23.877Z,4.97
2022-09-12T20:38:53.430Z,4.63
2022-09-12T20:41:22.458Z,4.50
2022-09-12T20:43:51.346Z,5.00
2022-09-12T20:46:22.471Z,5.97
2022-09-12T20:48:51.491Z,5.57
2022-09-12T20:51:20.215Z,6.95
2022-09-12T20:53:48.428Z,5.35
2022-09-12T20:56:16.463Z,5.72
2022-09-12T20:58:44.855Z,6.00
2022-09-12T21:01:13.595Z,5.45
2022-09-12T21:03:43.992Z,5.43
2022-09-12T21:06:13.438Z,5.32
2022-09-12T21:08:41.658Z,5.65
2022-09-12T21:11:09.827Z,5.15
2022-09-12T21:13:38.232Z,5.20
2022-09-12T21:16:08.517Z,5.85
2022-09-12T21:18:37.029Z,6.20
2022-09-12T21:21:07.209Z,5.00
2022-09-12T21:23:35.466Z,4.95
2022-09-12T21:26:04.249Z,5.85
2022-09-12T21:28:32.528Z,5.78
2022-09-12T21:31:01.142Z,6.03
2022-09-12T21:33:29.575Z,5.63
2022-09-12T21:36:02.999Z,5.30
2022-09-12T21:38:32.918Z,5.30
2022-09-12T21:41:05.549Z,5.43
2022-09-12T21:43:33.461Z,5.60
2022-09-12T21:46:02.193Z,6.03
2022-09-12T21:48:30.510Z,5.88
2022-09-12T21:50:58.499Z,5.55
2022-09-12T21:53:26.566Z,6.50
2022-09-12T21:55:55.969Z,6.30
2022-09-12T21:58:23.760Z,5.68
2022-09-12T22:00:51.948Z,6.57
2022-09-12T22:03:20.219Z,6.35
2022-09-12T22:05:52.251Z,6.80
2022-09-12T22:08:20.279Z,6.95
2022-09-12T22:10:48.177Z,7.00
2022-09-12T22:13:17.325Z,7.93
2022-09-12T22:15:45.492Z,8.20
2022-09-12T22:18:13.549Z,8.18
2022-09-12T22:20:41.311Z,7.13
2022-09-12T22:23:28.372Z,7.25
2022-09-12T22:25:56.704Z,7.60
2022-09-12T22:28:25.787Z,7.82
2022-09-12T22:30:54.727Z,9.07
2022-09-12T22:33:22.725Z,8.48
2022-09-12T22:35:50.446Z,8.25
2022-09-12T22:38:18.311Z,8.82
2022-09-12T22:40:46.190Z,8.43
2022-09-12T22:43:14.055Z,7.25
2022-09-12T22:45:43.510Z,8.55
2022-09-12T22:48:11.383Z,7.75
2022-09-12T22:50:39.170Z,7.22
2022-09-12T22:53:06.997Z,7.88
2022-09-12T22:55:35.001Z,6.13
2022-09-12T22:58:03.599Z,7.13
2022-09-12T23:00:31.909Z,7.90
2022-09-12T23:03:01.830Z,6.90
2022-09-12T23:05:29.846Z,8.05
2022-09-12T23:07:57.601Z,7.45
2022-09-12T23:10:25.955Z,7.60
2022-09-12T23:12:53.733Z,7.80
2022-09-12T23:15:21.897Z,7.93
2022-09-12T23:17:50.092Z,8.40
2022-09-12T23:20:19.331Z,8.40
2022-09-12T23:22:47.182Z,7.47
2022-09-12T23:25:15.126Z,8.05
2022-09-12T23:27:43.267Z,7.63
2022-09-12T23:30:12.954Z,7.85
2022-09-12T23:32:40.852Z,7.80
2022-09-12T23:35:08.897Z,7.53
2022-09-12T23:37:38.107Z,7.70
2022-09-12T23:40:07.101Z,7.97
2022-09-12T23:42:34.981Z,8.60
2022-09-12T23:45:02.890Z,8.10
2022-09-12T23:47:30.678Z,8.52
2022-09-12T23:49:58.758Z,7.97
2022-09-12T23:52:27.131Z,8.35
2022-09-12T23:54:56.214Z,8.13
2022-09-12T23:57:24.109Z,7.82
2022-09-12T23:59:51.962Z,8.60
